Time;durP1;ratioP1;P1;durP2;ratioP2;P2;SDS_P1;SDS_P2;PMS_P1;PMS_P2;Temp;Humidity;BMP_temperature;BMP_pressure;BME280_temperature;BME280_humidity;BME280_pressure;Samples;Min_cycle;Max_cycle;Signal;HPM_P1;HPM_P2
2024/01/09 00:02:46;;;;;;;4.30;2.30;;;;;;;-14.21;57.64;100218.88;102717;1295;600027;-28
2024/01/09 00:05:14;;;;;;;2.50;1.90;;;;;;;-14.67;59.69;100222.48;105059;1267;61142;-28
2024/01/09 00:07:42;;;;;;;3.00;1.20;;;;;;;-14.48;59.80;100226.05;104903;1270;61079;-28
2024/01/09 00:17:46;;;;;;;6.50;1.60;;;;;;;-14.23;58.28;100240.52;102676;1291;600040;-28
2024/01/09 00:20:14;;;;;;;3.40;1.50;;;;;;;-14.27;59.25;100238.36;104797;1267;62296;-28
2024/01/09 00:30:19;;;;;;;4.00;2.00;;;;;;;-14.66;59.97;100255.38;103022;1292;600230;-28
2024/01/09 00:32:48;;;;;;;9.00;3.20;;;;;;;-14.53;59.85;100258.05;104813;1269;61170;-28
2024/01/09 00:35:17;;;;;;;6.20;3.70;;;;;;;-13.86;58.01;100257.92;104866;1271;61154;-28
2024/01/09 00:37:44;;;;;;;3.60;2.60;;;;;;;-13.62;57.24;100262.42;104850;1280;71650;-28
2024/01/09 00:40:12;;;;;;;7.30;2.70;;;;;;;-13.58;56.18;100261.41;104109;1271;1002542;-27
2024/01/09 00:42:40;;;;;;;5.60;2.30;;;;;;;-14.04;56.94;100260.92;104834;1272;72587;-28
2024/01/09 00:45:08;;;;;;;2.20;1.50;;;;;;;-14.12;57.94;100264.95;104751;1269;182172;-29
2024/01/09 00:47:36;;;;;;;4.50;2.20;;;;;;;-13.50;56.59;100266.55;104854;1263;61109;-28
2024/01/09 00:50:04;;;;;;;5.70;2.80;;;;;;;-13.47;56.27;100268.15;105103;1268;70941;-28
2024/01/09 00:52:32;;;;;;;5.00;2.70;;;;;;;-13.73;56.74;100265.56;104969;1263;74331;-28
2024/01/09 00:54:59;;;;;;;6.30;2.20;;;;;;;-14.23;57.52;100260.86;104863;1269;70725;-28
2024/01/09 00:57:27;;;;;;;7.70;1.70;;;;;;;-14.26;58.31;100261.58;104889;1269;61188;-28
2024/01/09 00:59:55;;;;;;;2.10;1.60;;;;;;;-13.58;57.65;100267.09;104920;1268;61221;-28
2024/01/09 01:02:22;;;;;;;7.10;2.80;;;;;;;-13.43;56.20;100269.45;105142;1263;73026;-28
2024/01/09 01:11:04;;;;;;;3.50;1.80;;;;;;;-13.96;57.14;100279.41;102809;1292;600143;-28
2024/01/09 01:13:32;;;;;;;5.20;2.40;;;;;;;-13.60;56.50;100278.36;104807;1270;61117;-28
2024/01/09 01:23:37;;;;;;;11.90;3.20;;;;;;;-13.62;56.55;100288.66;102681;1292;600093;-27
2024/01/09 01:26:05;;;;;;;4.10;2.60;;;;;;;-13.51;55.58;100288.89;104851;1267;61192;-28
2024/01/09 01:28:32;;;;;;;4.40;2.50;;;;;;;-13.79;55.52;100291.05;105262;1266;61118;-28
2024/01/09 01:38:43;;;;;;;2.90;1.50;;;;;;;-13.35;55.15;100289.59;102695;1293;599165;-28
2024/01/09 01:41:11;;;;;;;4.70;2.20;;;;;;;-13.73;55.19;100288.28;104831;1272;61196;-28
2024/01/09 01:43:38;;;;;;;1.50;1.10;;;;;;;-14.48;56.54;100289.28;104904;1268;61208;-28
2024/01/09 01:46:06;;;;;;;1.10;1.00;;;;;;;-14.61;57.30;100290.27;104905;1268;71036;-28
2024/01/09 01:48:34;;;;;;;5.00;2.30;;;;;;;-14.08;56.47;100290.64;104818;1267;74083;-28
2024/01/09 01:58:42;;;;;;;11.20;1.90;;;;;;;-14.78;59.02;100289.77;102674;1293;599299;-28
2024/01/09 02:01:10;;;;;;;3.00;1.70;;;;;;;-14.39;57.58;100289.96;104893;1270;61243;-27
2024/01/09 02:03:38;;;;;;;3.30;2.00;;;;;;;-14.62;58.05;100292.39;104702;1272;61209;-27
2024/01/09 02:13:47;;;;;;;5.30;2.60;;;;;;;-13.95;56.29;100294.48;102661;1292;599279;-28
2024/01/09 02:16:15;;;;;;;4.40;2.50;;;;;;;-14.39;56.89;100296.14;104845;1271;61223;-28
2024/01/09 02:18:42;;;;;;;1.90;0.80;;;;;;;-14.85;58.62;100300.34;104776;1266;61207;-28
2024/01/09 02:21:10;;;;;;;3.80;1.80;;;;;;;-14.37;57.78;100301.06;105066;1266;71059;-28
2024/01/09 02:23:38;;;;;;;4.40;2.10;;;;;;;-13.77;56.37;100301.14;104761;1266;74336;-28
2024/01/09 02:26:08;;;;;;;2.10;1.30;;;;;;;-13.99;55.92;100300.48;104830;1266;72632;-28
2024/01/09 02:28:50;;;;;;;2.20;1.10;;;;;;;-14.56;57.72;100301.45;104788;1266;61168;-28
2024/01/09 02:31:18;;;;;;;3.10;1.50;;;;;;;-14.66;58.48;100301.09;104805;1264;61102;-28
2024/01/09 02:33:47;;;;;;;1.60;1.30;;;;;;;-14.03;57.12;100301.00;104887;1269;71242;-28
2024/01/09 02:36:14;;;;;;;3.60;1.80;;;;;;;-13.43;55.27;100301.04;105047;1268;73170;-28
2024/01/09 02:38:44;;;;;;;3.20;2.20;;;;;;;-13.73;55.12;100297.42;104919;1266;71344;-28
2024/01/09 02:41:11;;;;;;;2.80;1.60;;;;;;;-14.30;56.69;100294.64;105104;1267;61146;-28
2024/01/09 02:43:39;;;;;;;1.90;1.20;;;;;;;-14.57;57.72;100297.12;104796;1269;61134;-27
2024/01/09 02:53:47;;;;;;;4.00;1.40;;;;;;;-14.12;56.21;100302.19;102746;1290;599386;-28
2024/01/09 02:56:15;;;;;;;1.70;1.00;;;;;;;-14.40;57.46;100301.44;105114;1266;61643;-28
2024/01/09 02:58:43;;;;;;;2.10;1.20;;;;;;;-13.63;56.14;100302.98;104841;1266;61141;-28
2024/01/09 03:01:11;;;;;;;4.50;1.90;;;;;;;-13.51;55.35;100305.42;104853;1271;72260;-28
2024/01/09 03:03:38;;;;;;;3.50;2.00;;;;;;;-13.78;54.96;100304.10;104896;1269;74330;-28
2024/01/09 03:06:06;;;;;;;3.80;2.00;;;;;;;-14.44;56.32;100300.79;101903;1267;1005424;-27
2024/01/09 03:08:34;;;;;;;1.80;1.30;;;;;;;-14.67;57.78;100302.21;105026;1268;171154;-27
2024/01/09 03:11:02;;;;;;;2.30;1.60;;;;;;;-14.06;56.92;100306.09;105172;1263;61208;-28
2024/01/09 03:13:29;;;;;;;5.20;2.20;;;;;;;-14.06;56.51;100309.76;105129;1268;72229;-28
2024/01/09 03:15:57;;;;;;;4.60;2.00;;;;;;;-14.24;56.74;100315.41;105100;1268;74422;-27
2024/01/09 03:18:25;;;;;;;3.90;2.30;;;;;;;-14.67;57.36;100315.57;105031;1263;71491;-28
2024/01/09 03:20:53;;;;;;;2.20;1.50;;;;;;;-14.85;58.49;100317.34;105162;1263;61135;-27
2024/01/09 03:23:20;;;;;;;4.20;2.20;;;;;;;-14.27;57.79;100313.28;105028;1269;61083;-28
2024/01/09 03:25:48;;;;;;;4.10;2.30;;;;;;;-14.00;56.45;100318.49;104999;1269;73010;-28
2024/01/09 03:28:16;;;;;;;2.90;1.80;;;;;;;-14.22;56.71;100313.64;103479;1269;1003429;-28
2024/01/09 03:38:24;;;;;;;6.00;1.40;;;;;;;-13.88;56.37;100325.28;102942;1289;600144;-28
2024/01/09 03:40:52;;;;;;;4.00;1.80;;;;;;;-14.39;57.42;100329.34;105053;1266;61148;-28
2024/01/09 03:43:19;;;;;;;3.20;2.20;;;;;;;-14.77;58.27;100333.15;105111;1270;61250;-28
2024/01/09 03:45:47;;;;;;;1.60;1.00;;;;;;;-14.72;58.34;100340.01;105062;1270;71078;-27
2024/01/09 03:48:15;;;;;;;2.80;2.00;;;;;;;-13.88;57.11;100340.48;105144;1269;74266;-28
2024/01/09 03:50:42;;;;;;;2.80;2.00;;;;;;;-13.66;56.09;100338.28;105120;1270;71882;-28
2024/01/09 03:53:10;;;;;;;5.40;3.50;;;;;;;-13.86;56.36;100338.55;105107;1264;188713;-28
2024/01/09 03:55:38;;;;;;;4.40;1.80;;;;;;;-14.29;56.89;100341.88;105266;1260;61132;-28
2024/01/09 03:58:06;;;;;;;3.90;2.70;;;;;;;-14.67;58.33;100343.06;105207;1267;72674;-28
2024/01/09 04:00:33;;;;;;;2.00;1.60;;;;;;;-14.09;57.65;100341.02;105232;1267;74271;-28
2024/01/09 04:03:01;;;;;;;3.00;2.00;;;;;;;-14.10;57.29;100345.30;105227;1261;71426;-28
2024/01/09 04:05:29;;;;;;;3.30;2.30;;;;;;;-14.33;57.92;100347.42;105305;1263;61159;-28
2024/01/09 04:07:56;;;;;;;3.40;1.40;;;;;;;-14.96;59.96;100350.05;105224;1261;61117;-28
2024/01/09 04:10:24;;;;;;;1.40;1.30;;;;;;;-14.80;59.79;100358.70;105204;1267;72977;-27
2024/01/09 04:12:51;;;;;;;2.80;2.00;;;;;;;-14.32;58.64;100358.48;105224;1267;74303;-28
2024/01/09 04:15:19;;;;;;;5.70;2.80;;;;;;;-13.94;57.72;100361.80;105698;1260;72647;-27
2024/01/09 04:17:47;;;;;;;5.20;2.30;;;;;;;-14.25;57.85;100362.29;104191;1254;1016221;-28
2024/01/09 04:20:15;;;;;;;4.50;1.90;;;;;;;-14.77;59.27;100367.34;105661;1254;61041;-27
2024/01/09 04:22:42;;;;;;;5.70;2.40;;;;;;;-14.82;60.04;100369.45;105634;1260;71761;-28
2024/01/09 04:25:11;;;;;;;4.80;2.70;;;;;;;-14.05;57.96;100370.55;105514;1254;73494;-28
2024/01/09 04:27:39;;;;;;;3.10;1.90;;;;;;;-14.02;57.62;100368.33;105532;1260;72682;-28
2024/01/09 04:30:07;;;;;;;4.30;2.20;;;;;;;-14.28;57.60;100367.81;105467;1255;61102;-31
2024/01/09 04:32:35;;;;;;;5.80;1.90;;;;;;;-14.90;59.90;100369.31;105220;1259;61183;-28
2024/01/09 04:35:03;;;;;;;5.20;1.70;;;;;;;-14.84;60.68;100371.72;105620;1261;71884;-28
2024/01/09 04:37:31;;;;;;;3.50;2.00;;;;;;;-13.84;58.16;100372.04;105626;1257;72074;-28
2024/01/09 04:39:59;;;;;;;3.90;2.20;;;;;;;-13.82;57.03;100375.62;109243;1256;71404;-29
2024/01/09 04:42:27;;;;;;;6.60;2.80;;;;;;;-14.16;58.25;100378.11;109076;1257;59394;-29
2024/01/09 04:44:54;;;;;;;4.10;1.70;;;;;;;-14.43;59.00;100382.38;109126;1256;58777;-29
2024/01/09 04:47:22;;;;;;;2.00;1.60;;;;;;;-14.25;58.93;100389.29;109247;1255;71763;-29
2024/01/09 04:49:49;;;;;;;3.80;2.00;;;;;;;-13.48;57.35;100393.23;109220;1256;74266;-29
2024/01/09 04:52:17;;;;;;;5.90;2.50;;;;;;;-13.47;56.43;100395.59;109209;1255;70471;-29
2024/01/09 04:54:44;;;;;;;3.90;2.30;;;;;;;-13.55;56.85;100393.30;109181;1256;58804;-29
2024/01/09 04:57:11;;;;;;;3.30;1.70;;;;;;;-14.07;57.75;100398.53;109137;1256;59979;-29
2024/01/09 04:59:42;;;;;;;3.10;1.90;;;;;;;-13.87;58.03;100397.61;109131;1257;73085;-29
2024/01/09 05:02:10;;;;;;;3.00;2.00;;;;;;;-13.14;56.63;100403.14;109322;1256;73040;-29
2024/01/09 05:04:37;;;;;;;2.70;2.00;;;;;;;-12.76;55.04;100403.50;109106;1260;71350;-29
2024/01/09 05:07:05;;;;;;;2.10;1.70;;;;;;;-12.91;54.81;100404.80;109093;1257;59257;-29
2024/01/09 05:09:33;;;;;;;2.40;1.70;;;;;;;-13.39;55.02;100406.08;109238;1255;58769;-29
2024/01/09 05:12:00;;;;;;;0.90;0.80;;;;;;;-13.58;55.87;100408.42;109117;1257;73039;-29
2024/01/09 05:14:28;;;;;;;3.00;2.00;;;;;;;-12.94;55.42;100407.03;109133;1257;74330;-29
2024/01/09 05:16:55;;;;;;;2.10;1.70;;;;;;;-12.60;53.87;100415.24;109215;1255;71423;-26
2024/01/09 05:19:23;;;;;;;3.90;2.20;;;;;;;-12.82;53.78;100410.64;109197;1257;58733;-27
2024/01/09 05:21:51;;;;;;;4.10;1.70;;;;;;;-13.33;54.65;100413.67;109189;1256;58765;-26
2024/01/09 05:24:18;;;;;;;2.60;1.60;;;;;;;-13.58;55.65;100412.41;109138;1257;72835;-27
2024/01/09 05:26:46;;;;;;;1.80;1.40;;;;;;;-13.08;55.07;100417.05;109151;1256;73172;-27
2024/01/09 05:29:13;;;;;;;5.80;1.70;;;;;;;-12.64;53.69;100421.30;109121;1262;72632;-27
2024/01/09 05:31:45;;;;;;;3.20;2.30;;;;;;;-12.88;53.84;100418.79;109105;1256;58814;-26
2024/01/09 05:34:12;;;;;;;2.40;1.10;;;;;;;-13.30;53.96;100417.80;109138;1257;59190;-27
2024/01/09 05:36:40;;;;;;;1.30;0.80;;;;;;;-13.70;54.68;100421.85;109164;1256;73101;-26
2024/01/09 05:39:07;;;;;;;1.30;1.00;;;;;;;-13.38;54.77;100427.52;109128;1257;74283;-27
2024/01/09 05:41:35;;;;;;;2.40;1.20;;;;;;;-12.83;53.57;100429.68;109134;1257;70470;-27
2024/01/09 05:44:02;;;;;;;1.50;1.30;;;;;;;-12.92;53.05;100429.67;109133;1257;58876;-27
2024/01/09 05:46:30;;;;;;;2.20;1.70;;;;;;;-13.31;53.28;100428.62;109173;1256;58809;-28
2024/01/09 05:48:58;;;;;;;1.40;0.80;;;;;;;-13.86;54.19;100428.73;109153;1256;73092;-29
2024/01/09 05:51:25;;;;;;;2.40;2.20;;;;;;;-13.78;54.91;100427.87;109134;1257;73039;-29
2024/01/09 05:53:53;;;;;;;2.50;1.60;;;;;;;-13.23;53.46;100432.73;109126;1256;72606;-29
2024/01/09 05:56:20;;;;;;;3.30;1.50;;;;;;;-13.31;53.01;100426.29;109131;1256;58842;-29
2024/01/09 05:58:48;;;;;;;3.40;1.80;;;;;;;-13.80;53.89;100430.13;109262;1256;59968;-29
2024/01/09 06:01:15;;;;;;;3.00;1.90;;;;;;;-14.31;54.85;100431.45;109163;1256;73021;-29
2024/01/09 06:03:43;;;;;;;1.70;1.60;;;;;;;-14.26;56.37;100433.48;109144;1256;73006;-29
2024/01/09 06:06:10;;;;;;;1.70;1.40;;;;;;;-13.58;55.03;100435.66;109118;1257;71245;-26
2024/01/09 06:08:38;;;;;;;3.80;2.60;;;;;;;-13.48;54.45;100442.55;109154;1257;59334;-26
2024/01/09 06:11:05;;;;;;;4.40;2.70;;;;;;;-13.76;54.55;100441.79;109195;1256;60078;-26
2024/01/09 06:13:33;;;;;;;2.20;1.50;;;;;;;-14.27;55.47;100439.27;109163;1256;72872;-26
2024/01/09 06:16:00;;;;;;;2.00;1.40;;;;;;;-14.12;56.07;100444.37;109123;1257;74281;-26
2024/01/09 06:18:28;;;;;;;2.60;1.70;;;;;;;-13.38;54.40;100449.08;109122;1257;72653;-27
2024/01/09 06:20:55;;;;;;;0.70;0.70;;;;;;;-13.20;53.43;100448.73;109143;1257;58784;-26
2024/01/09 06:23:23;;;;;;;3.20;1.90;;;;;;;-13.46;54.02;100450.46;109174;1256;58726;-26
2024/01/09 06:25:50;;;;;;;1.10;1.00;;;;;;;-13.88;54.37;100453.02;109108;1257;71856;-26
2024/01/09 06:28:18;;;;;;;1.30;0.70;;;;;;;-13.96;55.12;100453.21;109112;1257;74310;-28
2024/01/09 06:30:45;;;;;;;0.70;0.70;;;;;;;-13.33;54.03;100453.11;109112;1257;70322;-29
2024/01/09 06:33:13;;;;;;;2.60;1.70;;;;;;;-13.12;53.09;100453.86;109120;1257;59297;-26
2024/01/09 06:35:40;;;;;;;4.90;2.00;;;;;;;-13.37;53.78;100451.29;109046;1257;61034;-27
2024/01/09 06:38:08;;;;;;;5.10;2.30;;;;;;;-13.75;54.55;100447.85;109078;1257;71789;-26
2024/01/09 06:40:36;;;;;;;2.50;1.50;;;;;;;-14.02;55.74;100453.64;109101;1257;73194;-26
2024/01/09 06:43:05;;;;;;;2.30;1.90;;;;;;;-13.39;55.27;100451.73;109085;1257;72665;-28
2024/01/09 06:45:34;;;;;;;2.20;1.90;;;;;;;-12.95;53.95;100452.00;109108;1257;59280;-30
2024/01/09 06:48:02;;;;;;;3.30;1.70;;;;;;;-13.02;53.63;100455.60;108992;1257;59030;-29
2024/01/09 06:50:29;;;;;;;8.30;3.10;;;;;;;-13.34;54.50;100451.24;109075;1257;73039;-29
2024/01/09 06:53:04;;;;;;;2.00;1.30;;;;;;;-13.70;55.33;100452.57;109116;1257;74348;-29
2024/01/09 06:55:32;;;;;;;2.70;2.10;;;;;;;-13.58;56.51;100456.18;109084;1257;72714;-29
2024/01/09 06:58:01;;;;;;;8.00;3.10;;;;;;;-13.01;54.65;100460.82;109072;1259;59308;-29
2024/01/09 07:00:29;;;;;;;1.80;1.60;;;;;;;-12.72;54.00;100459.69;108965;1257;59835;-27
2024/01/09 07:02:57;;;;;;;2.80;1.60;;;;;;;-12.88;54.40;100462.62;109092;1257;73086;-26
2024/01/09 07:05:24;;;;;;;3.10;2.90;;;;;;;-13.05;54.84;100462.86;109093;1257;73216;-28
2024/01/09 07:07:52;;;;;;;3.40;2.10;;;;;;;-13.20;55.60;100457.41;109068;1257;71576;-26
2024/01/09 07:10:20;;;;;;;1.60;1.50;;;;;;;-12.93;55.68;100462.26;109082;1260;60397;-26
2024/01/09 07:12:47;;;;;;;4.60;2.30;;;;;;;-12.04;54.30;100470.16;109114;1257;60139;-27
2024/01/09 07:15:15;;;;;;;2.80;2.30;;;;;;;-11.78;53.57;100469.65;109094;1257;72244;-26
2024/01/09 07:17:44;;;;;;;4.90;3.30;;;;;;;-11.84;53.23;100468.61;109113;1257;74504;-26
2024/01/09 07:20:12;;;;;;;3.20;1.80;;;;;;;-12.05;54.13;100472.34;108969;1258;71686;-26
2024/01/09 07:22:40;;;;;;;7.70;2.90;;;;;;;-12.29;54.52;100468.83;109068;1259;60040;-26
2024/01/09 07:25:14;;;;;;;1.70;1.20;;;;;;;-12.30;54.78;100473.66;109040;1259;60035;-26
2024/01/09 07:27:41;;;;;;;4.30;1.90;;;;;;;-11.60;54.18;100477.42;109008;1259;73042;-27
2024/01/09 07:30:09;;;;;;;4.00;2.60;;;;;;;-11.17;53.04;100480.23;109039;1258;74300;-26
2024/01/09 07:32:37;;;;;;;3.00;2.20;;;;;;;-10.98;52.15;100480.63;108938;1259;72658;-26
2024/01/09 07:35:06;;;;;;;6.40;3.10;;;;;;;-11.28;52.76;100482.92;109032;1258;59305;-26
2024/01/09 07:37:33;;;;;;;7.60;3.40;;;;;;;-11.56;53.01;100490.77;108991;1258;60133;-27
2024/01/09 07:40:01;;;;;;;7.40;3.00;;;;;;;-11.93;54.02;100492.13;109011;1258;73045;-28
2024/01/09 07:42:29;;;;;;;9.50;2.80;;;;;;;-12.15;54.11;100494.44;109032;1258;74323;-29
2024/01/09 07:44:58;;;;;;;6.30;1.90;;;;;;;-11.76;53.68;100494.67;108982;1259;72648;-29
2024/01/09 07:47:26;;;;;;;6.20;3.70;;;;;;;-11.04;51.69;100492.53;109112;1258;59505;-26
2024/01/09 07:49:54;;;;;;;15.50;4.20;;;;;;;-11.01;51.65;100494.45;109035;1258;59983;-27
2024/01/09 07:52:22;;;;;;;6.40;3.30;;;;;;;-11.53;52.30;100494.40;109080;1260;73836;-26
2024/01/09 07:54:49;;;;;;;4.20;2.50;;;;;;;-11.35;52.02;100492.26;109101;1259;74450;-26
2024/01/09 07:57:17;;;;;;;9.50;2.80;;;;;;;-11.45;51.99;100491.45;109031;1260;71695;-28
2024/01/09 07:59:49;;;;;;;4.60;2.70;;;;;;;-11.60;52.36;100494.50;109071;1259;58775;-26
2024/01/09 08:02:16;;;;;;;5.50;2.30;;;;;;;-11.72;52.36;100499.83;109133;1258;60014;-27
2024/01/09 08:04:44;;;;;;;3.10;1.90;;;;;;;-11.44;52.14;100499.70;109019;1258;73895;-27
2024/01/09 08:07:11;;;;;;;4.60;3.00;;;;;;;-10.53;50.51;100508.20;109046;1259;74307;-27
2024/01/09 08:09:39;;;;;;;4.00;2.30;;;;;;;-10.24;49.24;100505.46;109092;1259;71359;-27
2024/01/09 08:12:06;;;;;;;6.10;3.40;;;;;;;-10.45;49.62;100513.30;108963;1258;59239;-26
2024/01/09 08:14:34;;;;;;;5.90;2.40;;;;;;;-10.67;50.01;100514.40;109046;1259;58778;-26
2024/01/09 08:17:01;;;;;;;3.10;1.90;;;;;;;-10.80;50.37;100511.66;109044;1259;73978;-26
2024/01/09 08:19:29;;;;;;;18.80;3.20;;;;;;;-10.88;50.63;100515.29;109017;1260;72085;-27
2024/01/09 08:21:56;;;;;;;8.10;3.90;;;;;;;-10.97;51.06;100516.55;109055;1258;72745;-27
2024/01/09 08:24:24;;;;;;;4.30;2.90;;;;;;;-11.16;51.62;100521.01;108935;1259;60047;-26
2024/01/09 08:26:52;;;;;;;6.00;3.30;;;;;;;-10.63;51.22;100526.06;109080;1259;60977;-26
2024/01/09 08:29:19;;;;;;;4.30;2.00;;;;;;;-9.85;49.07;100527.63;108991;1260;72966;-26
2024/01/09 08:31:47;;;;;;;6.10;3.00;;;;;;;-9.70;47.89;100525.63;108995;1259;75921;-28
2024/01/09 08:34:15;;;;;;;7.90;4.30;;;;;;;-9.64;48.00;100528.81;109074;1259;72590;-27
2024/01/09 08:36:43;;;;;;;8.90;4.10;;;;;;;-9.70;47.98;100530.50;109043;1259;60179;-27
2024/01/09 08:39:11;;;;;;;5.40;3.10;;;;;;;-10.00;48.34;100534.29;109037;1257;60330;-27
2024/01/09 08:41:40;;;;;;;5.50;3.30;;;;;;;-10.13;49.22;100534.48;108307;1257;1002324;-26
2024/01/09 08:44:08;;;;;;;8.20;4.20;;;;;;;-10.45;50.22;100530.27;109094;1257;74758;-26
2024/01/09 08:46:36;;;;;;;10.10;5.10;;;;;;;-10.37;49.96;100528.45;109021;1257;74204;-27
2024/01/09 08:49:03;;;;;;;10.00;4.40;;;;;;;-10.73;50.34;100523.45;109098;1257;60034;-26
2024/01/09 08:51:31;;;;;;;10.40;4.40;;;;;;;-11.09;51.29;100522.73;109105;1257;59606;-27
2024/01/09 08:53:58;;;;;;;7.20;3.60;;;;;;;-10.84;51.03;100522.77;109009;1257;73935;-26
2024/01/09 08:56:26;;;;;;;6.90;3.30;;;;;;;-10.96;50.75;100518.59;109050;1257;74379;-26
2024/01/09 08:58:54;;;;;;;9.20;4.60;;;;;;;-10.70;50.32;100523.70;108316;1257;1003067;-29
2024/01/09 09:01:21;;;;;;;11.60;4.50;;;;;;;-10.74;50.61;100523.41;109042;1257;62129;-29
2024/01/09 09:03:49;;;;;;;7.50;4.50;;;;;;;-10.65;51.00;100523.52;109079;1257;60156;-29
2024/01/09 09:06:17;;;;;;;7.00;3.80;;;;;;;-10.46;50.25;100521.00;109087;1257;73835;-26
2024/01/09 09:08:45;;;;;;;7.80;4.10;;;;;;;-10.15;49.97;100526.51;109095;1257;73300;-27
2024/01/09 09:11:16;;;;;;;9.00;4.40;;;;;;;-10.10;49.97;100523.45;109077;1257;72256;-26
2024/01/09 09:13:44;;;;;;;7.60;3.90;;;;;;;-9.71;49.14;100522.23;109029;1257;59496;-27
2024/01/09 09:16:14;;;;;;;14.40;4.70;;;;;;;-9.91;49.53;100518.56;109052;1257;60372;-26
2024/01/09 09:18:42;;;;;;;14.50;4.40;;;;;;;-9.81;49.37;100513.44;108297;1257;1002048;-27
2024/01/09 09:21:10;;;;;;;7.90;5.10;;;;;;;-9.81;49.06;100512.42;109063;1257;73177;-26
2024/01/09 09:23:39;;;;;;;8.30;4.70;;;;;;;-9.69;49.24;100510.54;108984;1259;72769;-26
2024/01/09 09:26:07;;;;;;;8.10;3.80;;;;;;;-9.55;48.83;100511.71;108977;1260;59520;-27
2024/01/09 09:28:35;;;;;;;10.90;5.40;;;;;;;-9.34;48.93;100507.16;109013;1259;60096;-27
2024/01/09 09:31:20;;;;;;;10.60;5.10;;;;;;;-9.34;48.90;100503.61;108977;1259;72591;-26
2024/01/09 09:33:48;;;;;;;6.20;2.60;;;;;;;-8.90;48.36;100503.08;108955;1259;74103;-26
2024/01/09 09:36:16;;;;;;;4.80;3.10;;;;;;;-8.86;47.81;100502.81;108950;1258;74222;-27
2024/01/09 09:38:44;;;;;;;5.70;2.80;;;;;;;-8.68;47.94;100505.04;108995;1259;61059;-27
2024/01/09 09:41:15;;;;;;;2.60;2.00;;;;;;;-8.45;47.76;100506.48;109015;1259;60707;-27
2024/01/09 09:43:52;;;;;;;5.00;2.80;;;;;;;-8.57;47.06;100496.33;108915;1259;75380;-26
2024/01/09 09:46:23;;;;;;;8.00;3.20;;;;;;;-8.74;47.45;100498.70;108931;1260;76295;-27
2024/01/09 09:48:53;;;;;;;9.50;4.60;;;;;;;-8.71;47.44;100495.89;108946;1263;73888;-26
2024/01/09 09:51:21;;;;;;;5.50;2.10;;;;;;;-8.38;46.74;100489.44;108971;1259;60015;-27
2024/01/09 09:53:52;;;;;;;7.10;4.60;;;;;;;-8.15;46.44;100485.30;109022;1259;60041;-27
2024/01/09 09:56:20;;;;;;;7.90;4.30;;;;;;;-8.20;46.71;100492.13;109084;1259;73869;-27
2024/01/09 09:58:48;;;;;;;3.30;2.10;;;;;;;-8.05;46.66;100490.36;108999;1259;76000;-28
2024/01/09 10:01:16;;;;;;;6.50;4.00;;;;;;;-8.15;46.82;100491.20;108886;1259;74656;-27
2024/01/09 10:03:55;;;;;;;10.00;5.30;;;;;;;-8.26;47.02;100489.48;108862;1259;58813;-27
2024/01/09 10:06:23;;;;;;;8.40;3.90;;;;;;;-8.47;47.73;100490.95;108924;1258;60935;-26
2024/01/09 10:08:53;;;;;;;5.30;3.50;;;;;;;-8.45;47.46;100487.95;108963;1259;71812;-27
2024/01/09 10:11:21;;;;;;;8.70;4.30;;;;;;;-8.56;47.75;100490.95;108849;1259;73670;-27
2024/01/09 10:13:49;;;;;;;7.90;3.60;;;;;;;-8.56;47.66;100490.80;109013;1259;71593;-27
2024/01/09 10:16:16;;;;;;;8.50;3.80;;;;;;;-8.25;47.84;100493.36;108956;1259;62315;-27
2024/01/09 10:18:44;;;;;;;4.50;2.60;;;;;;;-7.95;47.57;100494.41;109010;1263;59773;-27
2024/01/09 10:21:12;;;;;;;6.40;3.80;;;;;;;-7.93;47.10;100486.67;108902;1260;74745;-26
2024/01/09 10:23:40;;;;;;;8.50;4.00;;;;;;;-8.13;47.23;100482.13;109028;1259;73202;-26
2024/01/09 10:26:10;;;;;;;9.40;4.10;;;;;;;-8.18;48.11;100488.60;108815;1259;74205;-27
2024/01/09 10:28:38;;;;;;;8.70;4.70;;;;;;;-8.05;47.29;100483.61;108793;1259;61124;-27
2024/01/09 10:31:06;;;;;;;10.70;4.70;;;;;;;-8.02;47.37;100480.97;108948;1259;61871;-27
2024/01/09 10:33:38;;;;;;;8.60;4.20;;;;;;;-7.94;47.27;100479.59;108928;1259;73798;-27
2024/01/09 10:36:06;;;;;;;6.20;3.60;;;;;;;-7.36;46.41;100486.92;108862;1259;76412;-27
2024/01/09 10:38:34;;;;;;;6.30;4.00;;;;;;;-7.32;46.62;100488.48;108835;1258;71919;-27
2024/01/09 10:41:17;;;;;;;9.50;4.60;;;;;;;-7.50;47.80;100487.54;108958;1259;59293;-27
2024/01/09 10:43:47;;;;;;;8.90;4.60;;;;;;;-7.87;47.66;100489.82;108822;1266;58685;-27
2024/01/09 10:46:15;;;;;;;10.60;6.10;;;;;;;-7.84;47.51;100482.29;108832;1259;74795;-27
2024/01/09 10:48:43;;;;;;;9.70;4.80;;;;;;;-7.80;48.13;100482.02;108983;1260;74193;-27
2024/01/09 10:51:12;;;;;;;8.20;5.40;;;;;;;-7.91;47.85;100486.39;108861;1260;72790;-27
2024/01/09 10:53:40;;;;;;;7.60;4.20;;;;;;;-7.67;47.72;100488.13;108897;1260;62269;-27
2024/01/09 10:56:08;;;;;;;7.90;4.60;;;;;;;-7.60;48.00;100487.71;109007;1260;58784;-27
2024/01/09 10:58:36;;;;;;;11.80;5.80;;;;;;;-7.73;48.16;100489.89;109001;1259;73865;-27
2024/01/09 11:01:04;;;;;;;8.30;4.60;;;;;;;-7.45;48.04;100490.66;108919;1260;76476;-27
2024/01/09 11:03:31;;;;;;;8.00;4.70;;;;;;;-7.43;48.14;100493.56;108978;1259;72735;-27
2024/01/09 11:06:00;;;;;;;10.10;5.70;;;;;;;-7.45;48.14;100489.65;108990;1259;59185;-27
2024/01/09 11:08:28;;;;;;;8.80;5.30;;;;;;;-7.42;48.46;100483.96;108937;1260;60317;-27
2024/01/09 11:10:56;;;;;;;9.30;5.30;;;;;;;-7.27;47.85;100486.22;108958;1260;75324;-27
2024/01/09 11:13:23;;;;;;;7.40;2.60;;;;;;;-7.12;47.82;100481.84;108776;1260;74823;-27
2024/01/09 11:15:54;;;;;;;9.10;5.70;;;;;;;-6.86;47.19;100487.77;108904;1260;72698;-27
2024/01/09 11:18:22;;;;;;;9.00;4.70;;;;;;;-6.69;46.56;100479.88;108890;1260;61327;-27
2024/01/09 11:21:02;;;;;;;9.30;5.60;;;;;;;-6.42;46.50;100481.36;108927;1260;58769;-27
2024/01/09 11:24:04;;;;;;;11.20;5.10;;;;;;;-6.52;46.40;100477.20;108921;1259;71537;-27
2024/01/09 11:26:34;;;;;;;7.80;3.30;;;;;;;-6.28;46.24;100469.17;108976;1259;75934;-27
2024/01/09 11:29:05;;;;;;;8.50;3.80;;;;;;;-6.10;45.85;100471.38;108821;1259;72721;-27
2024/01/09 11:31:36;;;;;;;5.70;3.50;;;;;;;-5.87;45.92;100464.63;108883;1259;58788;-27
2024/01/09 11:34:05;;;;;;;11.20;6.00;;;;;;;-5.94;46.14;100464.05;108925;1259;59785;-27
2024/01/09 11:36:37;;;;;;;9.10;5.40;;;;;;;-6.37;46.44;100462.83;108816;1259;73360;-27
2024/01/09 11:39:12;;;;;;;9.10;5.80;;;;;;;-6.27;46.47;100459.04;108958;1259;74457;-27
2024/01/09 11:41:42;;;;;;;14.00;6.30;;;;;;;-6.56;47.35;100455.19;108800;1260;74181;-27
2024/01/09 11:44:15;;;;;;;9.50;5.30;;;;;;;-6.65;47.88;100457.27;108849;1259;59019;-27
2024/01/09 11:46:45;;;;;;;6.60;4.20;;;;;;;-6.53;48.03;100452.00;108921;1259;60458;-27
2024/01/09 11:49:15;;;;;;;8.20;4.20;;;;;;;-6.22;47.62;100452.00;108816;1260;72907;-27
2024/01/09 11:51:46;;;;;;;11.80;5.20;;;;;;;-6.42;48.07;100447.89;108895;1259;75966;-26
2024/01/09 11:54:16;;;;;;;7.10;3.60;;;;;;;-6.59;48.96;100446.54;108952;1260;73552;-27
2024/01/09 11:56:46;;;;;;;10.70;4.20;;;;;;;-6.27;48.57;100449.06;108873;1259;59809;-27
2024/01/09 11:59:19;;;;;;;6.80;4.40;;;;;;;-6.31;48.90;100443.29;108831;1260;58776;-26
2024/01/09 12:01:48;;;;;;;9.60;5.40;;;;;;;-6.41;49.60;100446.90;108839;1259;75540;-27
2024/01/09 12:04:20;;;;;;;9.00;5.40;;;;;;;-6.45;50.49;100447.70;108964;1259;75606;-27
2024/01/09 12:06:50;;;;;;;5.30;3.40;;;;;;;-6.29;49.67;100446.85;108905;1259;75719;-26
2024/01/09 12:09:19;;;;;;;6.60;3.50;;;;;;;-6.17;49.42;100441.22;108856;1259;60333;-28
2024/01/09 12:11:49;;;;;;;11.50;4.70;;;;;;;-6.52;50.23;100440.35;108845;1259;62244;-27
2024/01/09 12:14:20;;;;;;;10.50;6.00;;;;;;;-6.53;51.26;100439.67;108803;1260;75424;-26
2024/01/09 12:16:51;;;;;;;9.70;4.80;;;;;;;-6.61;51.04;100440.94;108791;1259;75042;-27
2024/01/09 12:19:21;;;;;;;6.50;4.90;;;;;;;-6.57;51.20;100440.31;108910;1259;72345;-27
2024/01/09 12:29:22;;;;;;;12.40;4.50;;;;;;;-6.55;51.56;100438.80;102670;1294;598787;-28
2024/01/09 12:31:49;;;;;;;7.40;3.70;;;;;;;-6.52;51.51;100436.63;104785;1267;61675;-28